sensor_id;sensor_type;location;lat;lon;timestamp;P1;durP1;ratioP1;P2;durP2;ratioP2
54125;SDS011;40360;52.992;6.796;2023-04-28T00:00:25;14.15;;;7.70;;
54125;SDS011;40360;52.992;6.796;2023-04-28T00:02:51;11.13;;;8.60;;
54125;SDS011;40360;52.992;6.796;2023-04-28T00:05:18;14.02;;;8.35;;
54125;SDS011;40360;52.992;6.796;2023-04-28T00:07:44;12.07;;;8.15;;
54125;SDS011;40360;52.992;6.796;2023-04-28T00:10:10;14.82;;;8.93;;
54125;SDS011;40360;52.992;6.796;2023-04-28T00:12:36;10.50;;;8.38;;
54125;SDS011;40360;52.992;6.796;2023-04-28T00:15:02;10.45;;;7.82;;
54125;SDS011;40360;52.992;6.796;2023-04-28T00:17:27;11.32;;;7.75;;
54125;SDS011;40360;52.992;6.796;2023-04-28T00:19:53;9.60;;;8.13;;
54125;SDS011;40360;52.992;6.796;2023-04-28T00:22:19;11.23;;;7.63;;
54125;SDS011;40360;52.992;6.796;2023-04-28T00:24:45;8.65;;;7.60;;
54125;SDS011;40360;52.992;6.796;2023-04-28T00:27:10;9.80;;;7.75;;
54125;SDS011;40360;52.992;6.796;2023-04-28T00:29:36;11.20;;;8.57;;
54125;SDS011;40360;52.992;6.796;2023-04-28T00:32:01;13.50;;;8.57;;
54125;SDS011;40360;52.992;6.796;2023-04-28T00:34:27;11.85;;;8.63;;
54125;SDS011;40360;52.992;6.796;2023-04-28T00:36:57;11.88;;;8.38;;
54125;SDS011;40360;52.992;6.796;2023-04-28T00:39:22;13.50;;;8.45;;
54125;SDS011;40360;52.992;6.796;2023-04-28T00:41:49;10.50;;;8.10;;
54125;SDS011;40360;52.992;6.796;2023-04-28T00:44:15;11.35;;;7.95;;
54125;SDS011;40360;52.992;6.796;2023-04-28T00:46:41;13.25;;;9.02;;
54125;SDS011;40360;52.992;6.796;2023-04-28T00:49:06;12.25;;;8.43;;
54125;SDS011;40360;52.992;6.796;2023-04-28T00:51:32;14.77;;;9.25;;
54125;SDS011;40360;52.992;6.796;2023-04-28T00:53:58;14.05;;;9.80;;
54125;SDS011;40360;52.992;6.796;2023-04-28T00:56:24;12.43;;;9.02;;
54125;SDS011;40360;52.992;6.796;2023-04-28T00:58:54;14.88;;;9.77;;
54125;SDS011;40360;52.992;6.796;2023-04-28T01:01:21;12.32;;;9.05;;
54125;SDS011;40360;52.992;6.796;2023-04-28T01:03:47;12.80;;;9.55;;
54125;SDS011;40360;52.992;6.796;2023-04-28T01:06:12;14.90;;;10.65;;
54125;SDS011;40360;52.992;6.796;2023-04-28T01:08:38;16.13;;;10.27;;
54125;SDS011;40360;52.992;6.796;2023-04-28T01:11:04;14.48;;;11.15;;
54125;SDS011;40360;52.992;6.796;2023-04-28T01:13:30;16.33;;;11.10;;
54125;SDS011;40360;52.992;6.796;2023-04-28T01:15:56;17.90;;;11.70;;
54125;SDS011;40360;52.992;6.796;2023-04-28T01:18:22;17.83;;;10.73;;
54125;SDS011;40360;52.992;6.796;2023-04-28T01:20:48;13.40;;;10.85;;
54125;SDS011;40360;52.992;6.796;2023-04-28T01:23:15;16.75;;;10.50;;
54125;SDS011;40360;52.992;6.796;2023-04-28T01:25:41;18.50;;;12.25;;
54125;SDS011;40360;52.992;6.796;2023-04-28T01:28:07;16.38;;;12.35;;
54125;SDS011;40360;52.992;6.796;2023-04-28T01:30:34;16.83;;;11.77;;
54125;SDS011;40360;52.992;6.796;2023-04-28T01:33:00;15.40;;;11.38;;
54125;SDS011;40360;52.992;6.796;2023-04-28T01:35:26;18.30;;;11.27;;
54125;SDS011;40360;52.992;6.796;2023-04-28T01:37:51;17.17;;;11.60;;
54125;SDS011;40360;52.992;6.796;2023-04-28T01:40:17;17.50;;;11.88;;
54125;SDS011;40360;52.992;6.796;2023-04-28T01:42:43;17.60;;;12.18;;
54125;SDS011;40360;52.992;6.796;2023-04-28T01:45:08;16.85;;;12.20;;
54125;SDS011;40360;52.992;6.796;2023-04-28T01:47:35;16.50;;;11.05;;
54125;SDS011;40360;52.992;6.796;2023-04-28T01:50:00;19.50;;;11.02;;
54125;SDS011;40360;52.992;6.796;2023-04-28T01:52:26;17.77;;;12.88;;
54125;SDS011;40360;52.992;6.796;2023-04-28T01:54:52;17.23;;;12.45;;
54125;SDS011;40360;52.992;6.796;2023-04-28T01:57:18;16.83;;;11.63;;
54125;SDS011;40360;52.992;6.796;2023-04-28T01:59:44;18.63;;;12.85;;
54125;SDS011;40360;52.992;6.796;2023-04-28T02:02:10;19.85;;;13.05;;
54125;SDS011;40360;52.992;6.796;2023-04-28T02:04:38;14.35;;;10.98;;
54125;SDS011;40360;52.992;6.796;2023-04-28T02:07:05;16.15;;;11.52;;
54125;SDS011;40360;52.992;6.796;2023-04-28T02:09:31;17.98;;;13.05;;
54125;SDS011;40360;52.992;6.796;2023-04-28T02:11:57;19.58;;;13.40;;
54125;SDS011;40360;52.992;6.796;2023-04-28T02:14:27;18.55;;;12.77;;
54125;SDS011;40360;52.992;6.796;2023-04-28T02:16:53;19.95;;;12.63;;
54125;SDS011;40360;52.992;6.796;2023-04-28T02:19:18;18.55;;;13.30;;
54125;SDS011;40360;52.992;6.796;2023-04-28T02:21:44;20.92;;;12.52;;
54125;SDS011;40360;52.992;6.796;2023-04-28T02:24:10;20.17;;;13.05;;
54125;SDS011;40360;52.992;6.796;2023-04-28T02:26:35;19.63;;;12.18;;
54125;SDS011;40360;52.992;6.796;2023-04-28T02:29:01;22.23;;;14.73;;
54125;SDS011;40360;52.992;6.796;2023-04-28T02:31:29;17.98;;;13.23;;
54125;SDS011;40360;52.992;6.796;2023-04-28T02:33:55;19.73;;;15.13;;
54125;SDS011;40360;52.992;6.796;2023-04-28T02:36:21;21.52;;;14.00;;
54125;SDS011;40360;52.992;6.796;2023-04-28T02:38:46;21.48;;;14.18;;
54125;SDS011;40360;52.992;6.796;2023-04-28T02:41:12;21.88;;;14.15;;
54125;SDS011;40360;52.992;6.796;2023-04-28T02:43:39;22.08;;;14.88;;
54125;SDS011;40360;52.992;6.796;2023-04-28T02:46:05;24.33;;;15.43;;
54125;SDS011;40360;52.992;6.796;2023-04-28T02:48:31;23.65;;;16.52;;
54125;SDS011;40360;52.992;6.796;2023-04-28T02:50:59;21.00;;;14.25;;
54125;SDS011;40360;52.992;6.796;2023-04-28T02:53:25;22.98;;;15.38;;
54125;SDS011;40360;52.992;6.796;2023-04-28T02:55:54;21.67;;;15.48;;
54125;SDS011;40360;52.992;6.796;2023-04-28T02:58:19;21.67;;;15.73;;
54125;SDS011;40360;52.992;6.796;2023-04-28T03:00:45;24.45;;;15.95;;
54125;SDS011;40360;52.992;6.796;2023-04-28T03:03:11;25.13;;;16.65;;
54125;SDS011;40360;52.992;6.796;2023-04-28T03:05:37;27.08;;;16.05;;
54125;SDS011;40360;52.992;6.796;2023-04-28T03:08:03;24.05;;;16.05;;
54125;SDS011;40360;52.992;6.796;2023-04-28T03:10:29;22.80;;;16.40;;
54125;SDS011;40360;52.992;6.796;2023-04-28T03:12:55;23.80;;;15.27;;
54125;SDS011;40360;52.992;6.796;2023-04-28T03:15:20;20.45;;;14.98;;
54125;SDS011;40360;52.992;6.796;2023-04-28T03:17:46;26.52;;;16.63;;
54125;SDS011;40360;52.992;6.796;2023-04-28T03:20:11;22.65;;;15.63;;
54125;SDS011;40360;52.992;6.796;2023-04-28T03:22:37;22.73;;;15.40;;
54125;SDS011;40360;52.992;6.796;2023-04-28T03:25:03;28.00;;;17.75;;
54125;SDS011;40360;52.992;6.796;2023-04-28T03:27:29;21.50;;;15.15;;
54125;SDS011;40360;52.992;6.796;2023-04-28T03:29:55;29.95;;;16.73;;
54125;SDS011;40360;52.992;6.796;2023-04-28T03:32:21;25.88;;;17.38;;
54125;SDS011;40360;52.992;6.796;2023-04-28T03:34:46;24.40;;;16.45;;
54125;SDS011;40360;52.992;6.796;2023-04-28T03:37:12;25.35;;;16.80;;
54125;SDS011;40360;52.992;6.796;2023-04-28T03:39:38;28.25;;;17.88;;
54125;SDS011;40360;52.992;6.796;2023-04-28T03:42:03;25.52;;;16.02;;
54125;SDS011;40360;52.992;6.796;2023-04-28T03:44:29;25.52;;;17.60;;
54125;SDS011;40360;52.992;6.796;2023-04-28T03:46:55;27.58;;;18.10;;
54125;SDS011;40360;52.992;6.796;2023-04-28T03:49:21;25.85;;;17.15;;
54125;SDS011;40360;52.992;6.796;2023-04-28T03:51:46;31.30;;;16.30;;
54125;SDS011;40360;52.992;6.796;2023-04-28T03:54:14;27.35;;;17.17;;
54125;SDS011;40360;52.992;6.796;2023-04-28T03:56:39;21.23;;;15.90;;
54125;SDS011;40360;52.992;6.796;2023-04-28T03:59:05;25.00;;;17.00;;
54125;SDS011;40360;52.992;6.796;2023-04-28T04:01:31;22.02;;;16.25;;
54125;SDS011;40360;52.992;6.796;2023-04-28T04:03:57;28.80;;;17.35;;
54125;SDS011;40360;52.992;6.796;2023-04-28T04:06:22;25.30;;;16.80;;
54125;SDS011;40360;52.992;6.796;2023-04-28T04:08:48;26.52;;;18.20;;
54125;SDS011;40360;52.992;6.796;2023-04-28T04:11:14;26.00;;;18.08;;
54125;SDS011;40360;52.992;6.796;2023-04-28T04:13:40;26.40;;;16.85;;
54125;SDS011;40360;52.992;6.796;2023-04-28T04:16:06;23.85;;;17.27;;
54125;SDS011;40360;52.992;6.796;2023-04-28T04:18:32;25.30;;;17.13;;
54125;SDS011;40360;52.992;6.796;2023-04-28T04:20:57;25.67;;;17.27;;
54125;SDS011;40360;52.992;6.796;2023-04-28T04:23:23;22.73;;;17.25;;
54125;SDS011;40360;52.992;6.796;2023-04-28T04:25:49;28.60;;;17.73;;
54125;SDS011;40360;52.992;6.796;2023-04-28T04:28:14;29.95;;;18.65;;
54125;SDS011;40360;52.992;6.796;2023-04-28T04:30:40;31.02;;;18.17;;
54125;SDS011;40360;52.992;6.796;2023-04-28T04:33:09;24.42;;;16.90;;
54125;SDS011;40360;52.992;6.796;2023-04-28T04:35:34;27.30;;;18.02;;
54125;SDS011;40360;52.992;6.796;2023-04-28T04:38:00;28.58;;;17.80;;
54125;SDS011;40360;52.992;6.796;2023-04-28T04:40:26;23.77;;;16.92;;
54125;SDS011;40360;52.992;6.796;2023-04-28T04:42:52;26.98;;;17.38;;
54125;SDS011;40360;52.992;6.796;2023-04-28T04:45:17;25.40;;;16.92;;
54125;SDS011;40360;52.992;6.796;2023-04-28T04:47:43;23.85;;;17.67;;
54125;SDS011;40360;52.992;6.796;2023-04-28T04:50:09;25.58;;;17.50;;
54125;SDS011;40360;52.992;6.796;2023-04-28T04:52:36;28.15;;;18.27;;
54125;SDS011;40360;52.992;6.796;2023-04-28T04:55:01;30.15;;;20.13;;
54125;SDS011;40360;52.992;6.796;2023-04-28T04:57:27;21.63;;;16.15;;
54125;SDS011;40360;52.992;6.796;2023-04-28T04:59:53;23.33;;;16.77;;
54125;SDS011;40360;52.992;6.796;2023-04-28T05:02:18;25.98;;;17.13;;
54125;SDS011;40360;52.992;6.796;2023-04-28T05:04:44;25.85;;;17.70;;
54125;SDS011;40360;52.992;6.796;2023-04-28T05:07:10;23.25;;;17.33;;
54125;SDS011;40360;52.992;6.796;2023-04-28T05:09:35;23.58;;;17.52;;
54125;SDS011;40360;52.992;6.796;2023-04-28T05:12:01;24.00;;;17.80;;
54125;SDS011;40360;52.992;6.796;2023-04-28T05:14:26;26.55;;;17.70;;
54125;SDS011;40360;52.992;6.796;2023-04-28T05:16:52;26.92;;;17.92;;
54125;SDS011;40360;52.992;6.796;2023-04-28T05:19:18;29.05;;;16.60;;
54125;SDS011;40360;52.992;6.796;2023-04-28T05:21:43;24.05;;;16.75;;
54125;SDS011;40360;52.992;6.796;2023-04-28T05:24:11;25.85;;;17.05;;
54125;SDS011;40360;52.992;6.796;2023-04-28T05:26:38;24.60;;;15.70;;
54125;SDS011;40360;52.992;6.796;2023-04-28T05:29:03;23.75;;;16.67;;
54125;SDS011;40360;52.992;6.796;2023-04-28T05:31:29;27.95;;;17.67;;
54125;SDS011;40360;52.992;6.796;2023-04-28T05:33:54;23.65;;;17.50;;
54125;SDS011;40360;52.992;6.796;2023-04-28T05:36:20;21.92;;;15.65;;
54125;SDS011;40360;52.992;6.796;2023-04-28T05:38:46;19.83;;;15.65;;
54125;SDS011;40360;52.992;6.796;2023-04-28T05:41:12;26.77;;;16.17;;
54125;SDS011;40360;52.992;6.796;2023-04-28T06:00:54;21.33;;;14.60;;
54125;SDS011;40360;52.992;6.796;2023-04-28T06:03:20;21.92;;;15.50;;
54125;SDS011;40360;52.992;6.796;2023-04-28T06:05:46;21.48;;;15.25;;
54125;SDS011;40360;52.992;6.796;2023-04-28T06:08:11;24.33;;;16.50;;
54125;SDS011;40360;52.992;6.796;2023-04-28T06:10:37;23.25;;;15.50;;
54125;SDS011;40360;52.992;6.796;2023-04-28T06:13:02;22.55;;;15.25;;
54125;SDS011;40360;52.992;6.796;2023-04-28T06:15:30;23.92;;;16.48;;
54125;SDS011;40360;52.992;6.796;2023-04-28T06:17:56;21.05;;;14.27;;
54125;SDS011;40360;52.992;6.796;2023-04-28T06:20:23;19.40;;;14.45;;
54125;SDS011;40360;52.992;6.796;2023-04-28T06:22:49;22.80;;;15.88;;
54125;SDS011;40360;52.992;6.796;2023-04-28T06:25:15;20.63;;;15.13;;
54125;SDS011;40360;52.992;6.796;2023-04-28T06:27:41;23.27;;;15.10;;
54125;SDS011;40360;52.992;6.796;2023-04-28T06:30:06;22.67;;;15.43;;
54125;SDS011;40360;52.992;6.796;2023-04-28T06:32:32;25.42;;;15.77;;
54125;SDS011;40360;52.992;6.796;2023-04-28T06:34:58;21.48;;;15.38;;
54125;SDS011;40360;52.992;6.796;2023-04-28T06:37:23;18.60;;;13.60;;
54125;SDS011;40360;52.992;6.796;2023-04-28T06:39:49;21.48;;;14.30;;
54125;SDS011;40360;52.992;6.796;2023-04-28T06:42:15;17.98;;;14.15;;
54125;SDS011;40360;52.992;6.796;2023-04-28T06:44:43;18.98;;;14.27;;
54125;SDS011;40360;52.992;6.796;2023-04-28T06:47:09;19.90;;;14.30;;
54125;SDS011;40360;52.992;6.796;2023-04-28T06:49:35;18.85;;;13.43;;
54125;SDS011;40360;52.992;6.796;2023-04-28T06:52:01;20.55;;;13.85;;
54125;SDS011;40360;52.992;6.796;2023-04-28T06:54:26;21.85;;;15.77;;
54125;SDS011;40360;52.992;6.796;2023-04-28T06:56:52;19.20;;;14.60;;
54125;SDS011;40360;52.992;6.796;2023-04-28T06:59:17;19.63;;;13.77;;
54125;SDS011;40360;52.992;6.796;2023-04-28T07:01:43;24.50;;;14.90;;
54125;SDS011;40360;52.992;6.796;2023-04-28T07:04:09;20.67;;;15.35;;
54125;SDS011;40360;52.992;6.796;2023-04-28T07:06:34;20.38;;;13.10;;
54125;SDS011;40360;52.992;6.796;2023-04-28T07:09:00;23.10;;;13.75;;
54125;SDS011;40360;52.992;6.796;2023-04-28T07:11:26;19.63;;;13.75;;
54125;SDS011;40360;52.992;6.796;2023-04-28T07:13:52;19.63;;;14.25;;
54125;SDS011;40360;52.992;6.796;2023-04-28T07:16:17;21.20;;;13.88;;
54125;SDS011;40360;52.992;6.796;2023-04-28T07:18:43;16.83;;;13.13;;
54125;SDS011;40360;52.992;6.796;2023-04-28T07:21:09;20.27;;;13.27;;
54125;SDS011;40360;52.992;6.796;2023-04-28T07:23:35;16.30;;;12.82;;
54125;SDS011;40360;52.992;6.796;2023-04-28T07:26:02;18.58;;;13.77;;
54125;SDS011;40360;52.992;6.796;2023-04-28T07:28:28;18.98;;;12.63;;
54125;SDS011;40360;52.992;6.796;2023-04-28T07:30:54;18.90;;;12.43;;
54125;SDS011;40360;52.992;6.796;2023-04-28T07:33:20;14.40;;;11.27;;
54125;SDS011;40360;52.992;6.796;2023-04-28T07:35:45;16.02;;;12.07;;
54125;SDS011;40360;52.992;6.796;2023-04-28T07:38:12;17.73;;;11.82;;
54125;SDS011;40360;52.992;6.796;2023-04-28T07:40:37;18.02;;;12.52;;
54125;SDS011;40360;52.992;6.796;2023-04-28T07:43:03;23.95;;;12.98;;
54125;SDS011;40360;52.992;6.796;2023-04-28T07:45:28;17.80;;;12.52;;
54125;SDS011;40360;52.992;6.796;2023-04-28T07:47:54;19.70;;;12.02;;
54125;SDS011;40360;52.992;6.796;2023-04-28T07:50:20;27.70;;;13.00;;
54125;SDS011;40360;52.992;6.796;2023-04-28T07:52:46;15.63;;;11.52;;
54125;SDS011;40360;52.992;6.796;2023-04-28T07:55:11;15.60;;;11.25;;
54125;SDS011;40360;52.992;6.796;2023-04-28T07:57:37;14.23;;;10.98;;
54125;SDS011;40360;52.992;6.796;2023-04-28T08:00:02;15.55;;;11.63;;
54125;SDS011;40360;52.992;6.796;2023-04-28T08:02:29;18.70;;;12.02;;
54125;SDS011;40360;52.992;6.796;2023-04-28T08:04:55;17.58;;;11.30;;
54125;SDS011;40360;52.992;6.796;2023-04-28T08:07:20;16.17;;;10.13;;
54125;SDS011;40360;52.992;6.796;2023-04-28T08:09:46;17.60;;;10.85;;
54125;SDS011;40360;52.992;6.796;2023-04-28T08:12:12;15.80;;;11.23;;
54125;SDS011;40360;52.992;6.796;2023-04-28T08:14:38;14.52;;;10.95;;
54125;SDS011;40360;52.992;6.796;2023-04-28T08:17:04;17.80;;;11.82;;
54125;SDS011;40360;52.992;6.796;2023-04-28T08:19:30;20.17;;;12.00;;
54125;SDS011;40360;52.992;6.796;2023-04-28T08:21:55;13.48;;;10.43;;
54125;SDS011;40360;52.992;6.796;2023-04-28T08:24:21;15.23;;;11.32;;
54125;SDS011;40360;52.992;6.796;2023-04-28T08:26:47;16.13;;;11.70;;
54125;SDS011;40360;52.992;6.796;2023-04-28T08:29:13;15.73;;;11.27;;
54125;SDS011;40360;52.992;6.796;2023-04-28T08:31:38;16.85;;;11.63;;
54125;SDS011;40360;52.992;6.796;2023-04-28T08:34:04;14.02;;;10.32;;
54125;SDS011;40360;52.992;6.796;2023-04-28T08:36:29;14.32;;;10.63;;
54125;SDS011;40360;52.992;6.796;2023-04-28T08:38:57;16.25;;;11.65;;
54125;SDS011;40360;52.992;6.796;2023-04-28T08:41:23;17.42;;;10.55;;
54125;SDS011;40360;52.992;6.796;2023-04-28T08:43:52;14.18;;;11.15;;
54125;SDS011;40360;52.992;6.796;2023-04-28T08:46:18;13.82;;;10.13;;
54125;SDS011;40360;52.992;6.796;2023-04-28T08:48:46;12.80;;;10.98;;
54125;SDS011;40360;52.992;6.796;2023-04-28T08:51:32;14.50;;;10.32;;
54125;SDS011;40360;52.992;6.796;2023-04-28T08:54:01;13.38;;;10.57;;
54125;SDS011;40360;52.992;6.796;2023-04-28T08:56:32;15.77;;;10.50;;
54125;SDS011;40360;52.992;6.796;2023-04-28T08:59:02;15.60;;;11.73;;
54125;SDS011;40360;52.992;6.796;2023-04-28T09:01:29;16.33;;;11.00;;
54125;SDS011;40360;52.992;6.796;2023-04-28T09:04:01;13.70;;;10.70;;
54125;SDS011;40360;52.992;6.796;2023-04-28T09:06:34;17.33;;;11.35;;
54125;SDS011;40360;52.992;6.796;2023-04-28T09:11:49;18.63;;;11.00;;
54125;SDS011;40360;52.992;6.796;2023-04-28T09:14:19;15.15;;;11.82;;
54125;SDS011;40360;52.992;6.796;2023-04-28T09:16:46;17.83;;;12.80;;
54125;SDS011;40360;52.992;6.796;2023-04-28T09:19:13;15.60;;;10.90;;
54125;SDS011;40360;52.992;6.796;2023-04-28T09:21:51;13.25;;;11.32;;
54125;SDS011;40360;52.992;6.796;2023-04-28T09:24:39;15.88;;;12.15;;
54125;SDS011;40360;52.992;6.796;2023-04-28T09:27:07;16.30;;;10.68;;
54125;SDS011;40360;52.992;6.796;2023-04-28T09:29:35;14.27;;;12.10;;
54125;SDS011;40360;52.992;6.796;2023-04-28T09:32:14;12.43;;;11.13;;
54125;SDS011;40360;52.992;6.796;2023-04-28T09:34:49;15.68;;;11.18;;
54125;SDS011;40360;52.992;6.796;2023-04-28T09:37:20;12.90;;;10.77;;
54125;SDS011;40360;52.992;6.796;2023-04-28T09:39:48;14.70;;;11.25;;
54125;SDS011;40360;52.992;6.796;2023-04-28T09:45:03;17.17;;;12.00;;
54125;SDS011;40360;52.992;6.796;2023-04-28T09:47:31;12.18;;;10.07;;
54125;SDS011;40360;52.992;6.796;2023-04-28T09:49:59;16.25;;;10.95;;
54125;SDS011;40360;52.992;6.796;2023-04-28T09:52:26;13.85;;;10.60;;
54125;SDS011;40360;52.992;6.796;2023-04-28T09:54:53;13.68;;;10.27;;
54125;SDS011;40360;52.992;6.796;2023-04-28T09:57:21;14.65;;;10.77;;
54125;SDS011;40360;52.992;6.796;2023-04-28T09:59:50;13.73;;;11.07;;
54125;SDS011;40360;52.992;6.796;2023-04-28T10:02:17;13.77;;;11.10;;
54125;SDS011;40360;52.992;6.796;2023-04-28T10:04:45;13.27;;;10.27;;
54125;SDS011;40360;52.992;6.796;2023-04-28T10:07:12;11.43;;;10.05;;
54125;SDS011;40360;52.992;6.796;2023-04-28T10:09:40;11.23;;;9.68;;
54125;SDS011;40360;52.992;6.796;2023-04-28T10:12:15;13.77;;;10.90;;
54125;SDS011;40360;52.992;6.796;2023-04-28T10:14:42;13.98;;;11.20;;
54125;SDS011;40360;52.992;6.796;2023-04-28T10:17:12;12.90;;;9.70;;
54125;SDS011;40360;52.992;6.796;2023-04-28T10:19:41;13.05;;;9.43;;
54125;SDS011;40360;52.992;6.796;2023-04-28T10:27:45;13.93;;;9.60;;
54125;SDS011;40360;52.992;6.796;2023-04-28T10:30:13;12.00;;;9.32;;
54125;SDS011;40360;52.992;6.796;2023-04-28T10:32:39;12.77;;;10.32;;
54125;SDS011;40360;52.992;6.796;2023-04-28T10:43:03;10.90;;;9.80;;
54125;SDS011;40360;52.992;6.796;2023-04-28T10:48:16;12.13;;;9.48;;
54125;SDS011;40360;52.992;6.796;2023-04-28T10:56:08;13.13;;;8.85;;
54125;SDS011;40360;52.992;6.796;2023-04-28T10:58:34;13.10;;;9.90;;
54125;SDS011;40360;52.992;6.796;2023-04-28T11:06:33;16.95;;;10.10;;
54125;SDS011;40360;52.992;6.796;2023-04-28T11:16:55;12.57;;;9.65;;
54125;SDS011;40360;52.992;6.796;2023-04-28T11:19:29;14.00;;;10.02;;
54125;SDS011;40360;52.992;6.796;2023-04-28T11:22:04;11.48;;;9.57;;
54125;SDS011;40360;52.992;6.796;2023-04-28T11:24:37;10.55;;;9.55;;
54125;SDS011;40360;52.992;6.796;2023-04-28T11:27:03;12.20;;;10.80;;
54125;SDS011;40360;52.992;6.796;2023-04-28T11:29:39;10.95;;;9.80;;
54125;SDS011;40360;52.992;6.796;2023-04-28T11:32:07;13.43;;;9.80;;
54125;SDS011;40360;52.992;6.796;2023-04-28T11:34:34;13.43;;;10.70;;
54125;SDS011;40360;52.992;6.796;2023-04-28T11:37:01;12.70;;;10.20;;
54125;SDS011;40360;52.992;6.796;2023-04-28T11:39:27;11.77;;;9.57;;
54125;SDS011;40360;52.992;6.796;2023-04-28T11:41:57;11.63;;;9.93;;
54125;SDS011;40360;52.992;6.796;2023-04-28T11:44:27;16.50;;;10.98;;
54125;SDS011;40360;52.992;6.796;2023-04-28T11:46:54;12.55;;;10.18;;
54125;SDS011;40360;52.992;6.796;2023-04-28T11:49:28;14.18;;;10.00;;
54125;SDS011;40360;52.992;6.796;2023-04-28T11:52:05;12.52;;;9.57;;
54125;SDS011;40360;52.992;6.796;2023-04-28T11:54:31;15.55;;;10.02;;
54125;SDS011;40360;52.992;6.796;2023-04-28T11:56:58;12.63;;;9.48;;
54125;SDS011;40360;52.992;6.796;2023-04-28T11:59:26;10.25;;;9.15;;
54125;SDS011;40360;52.992;6.796;2023-04-28T12:01:53;11.38;;;9.95;;
54125;SDS011;40360;52.992;6.796;2023-04-28T12:04:36;13.32;;;10.65;;
54125;SDS011;40360;52.992;6.796;2023-04-28T12:09:30;15.13;;;10.15;;
54125;SDS011;40360;52.992;6.796;2023-04-28T12:12:03;12.25;;;10.05;;
54125;SDS011;40360;52.992;6.796;2023-04-28T12:14:31;15.15;;;10.18;;
54125;SDS011;40360;52.992;6.796;2023-04-28T12:16:59;12.65;;;9.05;;
54125;SDS011;40360;52.992;6.796;2023-04-28T12:19:25;21.17;;;10.95;;
54125;SDS011;40360;52.992;6.796;2023-04-28T12:21:58;12.23;;;10.10;;
54125;SDS011;40360;52.992;6.796;2023-04-28T12:24:25;10.90;;;9.60;;
54125;SDS011;40360;52.992;6.796;2023-04-28T12:26:51;13.13;;;10.50;;
54125;SDS011;40360;52.992;6.796;2023-04-28T12:29:37;13.60;;;10.77;;
54125;SDS011;40360;52.992;6.796;2023-04-28T12:32:04;12.02;;;10.73;;
54125;SDS011;40360;52.992;6.796;2023-04-28T12:34:31;11.20;;;10.10;;
54125;SDS011;40360;52.992;6.796;2023-04-28T12:36:58;14.18;;;10.60;;
54125;SDS011;40360;52.992;6.796;2023-04-28T12:39:27;13.13;;;10.65;;
54125;SDS011;40360;52.992;6.796;2023-04-28T12:41:53;12.30;;;10.45;;
54125;SDS011;40360;52.992;6.796;2023-04-28T12:44:19;12.52;;;10.88;;
54125;SDS011;40360;52.992;6.796;2023-04-28T12:46:47;11.88;;;10.68;;
54125;SDS011;40360;52.992;6.796;2023-04-28T12:49:13;13.68;;;10.77;;
54125;SDS011;40360;52.992;6.796;2023-04-28T12:51:39;15.38;;;11.77;;
54125;SDS011;40360;52.992;6.796;2023-04-28T12:54:05;13.75;;;11.43;;
54125;SDS011;40360;52.992;6.796;2023-04-28T12:56:31;13.45;;;11.63;;
54125;SDS011;40360;52.992;6.796;2023-04-28T12:58:57;12.38;;;10.93;;
54125;SDS011;40360;52.992;6.796;2023-04-28T13:01:23;13.90;;;11.77;;
54125;SDS011;40360;52.992;6.796;2023-04-28T13:03:50;18.70;;;11.57;;
54125;SDS011;40360;52.992;6.796;2023-04-28T13:06:17;13.82;;;11.43;;
54125;SDS011;40360;52.992;6.796;2023-04-28T13:08:43;14.93;;;12.20;;
54125;SDS011;40360;52.992;6.796;2023-04-28T13:11:09;14.25;;;12.13;;
54125;SDS011;40360;52.992;6.796;2023-04-28T13:13:35;12.38;;;11.00;;
54125;SDS011;40360;52.992;6.796;2023-04-28T13:16:01;14.35;;;12.07;;
54125;SDS011;40360;52.992;6.796;2023-04-28T13:18:28;15.05;;;13.25;;
54125;SDS011;40360;52.992;6.796;2023-04-28T13:20:57;14.07;;;12.73;;
54125;SDS011;40360;52.992;6.796;2023-04-28T13:23:23;15.18;;;13.48;;
54125;SDS011;40360;52.992;6.796;2023-04-28T13:25:49;16.27;;;14.57;;
54125;SDS011;40360;52.992;6.796;2023-04-28T13:28:15;17.20;;;14.05;;
54125;SDS011;40360;52.992;6.796;2023-04-28T13:30:40;16.02;;;14.35;;
54125;SDS011;40360;52.992;6.796;2023-04-28T13:33:06;15.48;;;13.40;;
54125;SDS011;40360;52.992;6.796;2023-04-28T13:35:31;17.35;;;14.77;;
54125;SDS011;40360;52.992;6.796;2023-04-28T13:37:57;14.85;;;13.20;;
54125;SDS011;40360;52.992;6.796;2023-04-28T13:40:26;17.27;;;15.27;;
54125;SDS011;40360;52.992;6.796;2023-04-28T13:42:52;16.23;;;13.65;;
54125;SDS011;40360;52.992;6.796;2023-04-28T13:45:18;17.88;;;15.05;;
54125;SDS011;40360;52.992;6.796;2023-04-28T13:47:45;20.33;;;15.80;;
54125;SDS011;40360;52.992;6.796;2023-04-28T13:50:15;17.45;;;15.52;;
54125;SDS011;40360;52.992;6.796;2023-04-28T13:52:41;18.20;;;15.20;;
54125;SDS011;40360;52.992;6.796;2023-04-28T13:55:07;18.52;;;16.63;;
54125;SDS011;40360;52.992;6.796;2023-04-28T13:57:33;18.83;;;16.70;;
54125;SDS011;40360;52.992;6.796;2023-04-28T13:59:59;22.98;;;20.65;;
54125;SDS011;40360;52.992;6.796;2023-04-28T14:02:24;23.40;;;19.40;;
54125;SDS011;40360;52.992;6.796;2023-04-28T14:04:51;20.58;;;18.30;;
54125;SDS011;40360;52.992;6.796;2023-04-28T14:07:17;21.50;;;19.23;;
54125;SDS011;40360;52.992;6.796;2023-04-28T14:09:44;23.17;;;20.27;;
54125;SDS011;40360;52.992;6.796;2023-04-28T14:12:10;21.17;;;19.05;;
54125;SDS011;40360;52.992;6.796;2023-04-28T14:14:36;22.50;;;20.08;;
54125;SDS011;40360;52.992;6.796;2023-04-28T14:17:01;20.02;;;18.10;;
54125;SDS011;40360;52.992;6.796;2023-04-28T14:19:28;23.10;;;20.23;;
54125;SDS011;40360;52.992;6.796;2023-04-28T14:21:54;25.67;;;22.60;;
54125;SDS011;40360;52.992;6.796;2023-04-28T14:24:19;23.85;;;21.30;;
54125;SDS011;40360;52.992;6.796;2023-04-28T14:26:45;22.38;;;20.02;;
54125;SDS011;40360;52.992;6.796;2023-04-28T14:29:13;26.88;;;23.88;;
54125;SDS011;40360;52.992;6.796;2023-04-28T14:31:39;23.98;;;21.55;;
54125;SDS011;40360;52.992;6.796;2023-04-28T14:34:06;24.88;;;22.02;;
54125;SDS011;40360;52.992;6.796;2023-04-28T14:36:32;25.45;;;22.73;;
54125;SDS011;40360;52.992;6.796;2023-04-28T14:38:58;24.58;;;22.20;;
54125;SDS011;40360;52.992;6.796;2023-04-28T14:41:24;25.95;;;23.25;;
54125;SDS011;40360;52.992;6.796;2023-04-28T14:43:49;27.95;;;25.00;;
54125;SDS011;40360;52.992;6.796;2023-04-28T14:46:15;23.80;;;21.40;;
54125;SDS011;40360;52.992;6.796;2023-04-28T14:48:43;25.65;;;23.05;;
54125;SDS011;40360;52.992;6.796;2023-04-28T14:51:09;27.05;;;24.45;;
54125;SDS011;40360;52.992;6.796;2023-04-28T14:53:35;27.88;;;25.02;;
54125;SDS011;40360;52.992;6.796;2023-04-28T14:56:03;27.02;;;24.48;;
54125;SDS011;40360;52.992;6.796;2023-04-28T14:58:29;27.70;;;24.98;;
54125;SDS011;40360;52.992;6.796;2023-04-28T15:00:55;27.20;;;24.30;;
54125;SDS011;40360;52.992;6.796;2023-04-28T15:03:20;28.65;;;25.70;;
54125;SDS011;40360;52.992;6.796;2023-04-28T15:05:49;30.58;;;27.38;;
54125;SDS011;40360;52.992;6.796;2023-04-28T15:08:17;29.52;;;26.50;;
54125;SDS011;40360;52.992;6.796;2023-04-28T15:10:43;28.08;;;25.45;;
54125;SDS011;40360;52.992;6.796;2023-04-28T15:13:08;29.10;;;26.20;;
54125;SDS011;40360;52.992;6.796;2023-04-28T15:15:34;30.67;;;27.58;;
54125;SDS011;40360;52.992;6.796;2023-04-28T15:18:00;30.23;;;27.23;;
54125;SDS011;40360;52.992;6.796;2023-04-28T15:20:30;29.73;;;26.92;;